sensor_id;sensor_type;location;lat;lon;timestamp;pressure;altitude;pressure_sealevel;temperature;humidity
49451;BME280;35336;48.400;10.886;2022-10-16T00:00:11;96237.50;;;12.84;96.08
49451;BME280;35336;48.400;10.886;2022-10-16T00:00:26;96236.88;;;12.82;95.96
49451;BME280;35336;48.400;10.886;2022-10-16T00:00:42;96217.38;;;12.68;95.89
49451;BME280;35336;48.400;10.886;2022-10-16T00:00:58;96249.63;;;12.87;95.86
49451;BME280;35336;48.400;10.886;2022-10-16T00:01:15;96259.25;;;12.95;95.83
49451;BME280;35336;48.400;10.886;2022-10-16T00:01:31;96245.31;;;12.86;95.56
49451;BME280;35336;48.400;10.886;2022-10-16T00:01:46;96245.91;;;12.88;95.90
49451;BME280;35336;48.400;10.886;2022-10-16T00:02:01;96260.09;;;12.95;95.63
49451;BME280;35336;48.400;10.886;2022-10-16T00:02:17;96268.50;;;12.99;95.70
49451;BME280;35336;48.400;10.886;2022-10-16T00:02:32;96246.94;;;12.87;95.54
49451;BME280;35336;48.400;10.886;2022-10-16T00:02:47;96263.97;;;12.99;95.42
49451;BME280;35336;48.400;10.886;2022-10-16T00:03:04;96265.22;;;12.97;95.52
49451;BME280;35336;48.400;10.886;2022-10-16T00:03:19;96259.47;;;12.93;95.44
49451;BME280;35336;48.400;10.886;2022-10-16T00:03:35;96263.78;;;12.94;95.59
49451;BME280;35336;48.400;10.886;2022-10-16T00:03:51;96264.00;;;12.93;95.47
49451;BME280;35336;48.400;10.886;2022-10-16T00:04:06;96259.88;;;12.97;95.32
49451;BME280;35336;48.400;10.886;2022-10-16T00:04:22;96243.66;;;12.85;95.45
49451;BME280;35336;48.400;10.886;2022-10-16T00:04:37;96263.56;;;12.96;95.61
49451;BME280;35336;48.400;10.886;2022-10-16T00:04:52;96252.88;;;12.89;95.38
49451;BME280;35336;48.400;10.886;2022-10-16T00:05:09;96246.56;;;12.83;95.48
49451;BME280;35336;48.400;10.886;2022-10-16T00:05:25;96263.78;;;12.94;95.49
49451;BME280;35336;48.400;10.886;2022-10-16T00:05:42;96242.25;;;12.82;95.52
49451;BME280;35336;48.400;10.886;2022-10-16T00:05:59;96235.63;;;12.85;95.55
49451;BME280;35336;48.400;10.886;2022-10-16T00:06:18;96267.66;;;12.98;95.72
49451;BME280;35336;48.400;10.886;2022-10-16T00:06:33;96265.84;;;12.99;95.42
49451;BME280;35336;48.400;10.886;2022-10-16T00:06:48;96257.81;;;12.99;95.42
49451;BME280;35336;48.400;10.886;2022-10-16T00:07:04;96265.16;;;13.03;95.27
49451;BME280;35336;48.400;10.886;2022-10-16T00:07:19;96241.78;;;12.92;95.28
49451;BME280;35336;48.400;10.886;2022-10-16T00:07:35;96262.50;;;13.03;95.17
49451;BME280;35336;48.400;10.886;2022-10-16T00:07:50;96245.47;;;12.91;95.04
49451;BME280;35336;48.400;10.886;2022-10-16T00:08:06;96263.56;;;13.02;94.93
49451;BME280;35336;48.400;10.886;2022-10-16T00:08:21;96261.69;;;13.03;94.94
49451;BME280;35336;48.400;10.886;2022-10-16T00:08:38;96245.88;;;12.95;94.67
49451;BME280;35336;48.400;10.886;2022-10-16T00:08:54;96230.50;;;12.83;94.82
49451;BME280;35336;48.400;10.886;2022-10-16T00:09:09;96256.56;;;13.01;94.47
49451;BME280;35336;48.400;10.886;2022-10-16T00:09:25;96251.22;;;12.95;94.70
49451;BME280;35336;48.400;10.886;2022-10-16T00:09:40;96263.56;;;13.02;94.81
49451;BME280;35336;48.400;10.886;2022-10-16T00:09:56;96253.69;;;12.96;94.76
49451;BME280;35336;48.400;10.886;2022-10-16T00:10:11;96251.00;;;12.96;94.67
49451;BME280;35336;48.400;10.886;2022-10-16T00:10:26;96265.16;;;13.03;94.72
49451;BME280;35336;48.400;10.886;2022-10-16T00:10:42;96246.72;;;12.95;94.58
49451;BME280;35336;48.400;10.886;2022-10-16T00:11:12;96242.81;;;12.91;94.46
49451;BME280;35336;48.400;10.886;2022-10-16T00:11:31;96261.50;;;12.98;94.87
49451;BME280;35336;48.400;10.886;2022-10-16T00:11:48;96263.09;;;13.06;94.57
49451;BME280;35336;48.400;10.886;2022-10-16T00:12:04;96265.38;;;13.02;94.72
49451;BME280;35336;48.400;10.886;2022-10-16T00:12:21;96206.50;;;12.70;94.55
49451;BME280;35336;48.400;10.886;2022-10-16T00:12:37;96253.69;;;12.96;94.40
49451;BME280;35336;48.400;10.886;2022-10-16T00:12:52;96274.66;;;13.06;94.53
49451;BME280;35336;48.400;10.886;2022-10-16T00:13:08;96259.03;;;12.96;94.36
49451;BME280;35336;48.400;10.886;2022-10-16T00:13:23;96271.97;;;13.06;94.29
49451;BME280;35336;48.400;10.886;2022-10-16T00:13:40;96242.00;;;12.91;94.40
49451;BME280;35336;48.400;10.886;2022-10-16T00:13:58;96258.84;;;12.98;94.38
49451;BME280;35336;48.400;10.886;2022-10-16T00:14:14;96233.19;;;12.83;94.32
49451;BME280;35336;48.400;10.886;2022-10-16T00:14:30;96269.94;;;13.01;94.43
49451;BME280;35336;48.400;10.886;2022-10-16T00:14:45;96270.53;;;13.03;94.48
49451;BME280;35336;48.400;10.886;2022-10-16T00:15:01;96249.56;;;12.94;94.78
49451;BME280;35336;48.400;10.886;2022-10-16T00:15:16;96268.28;;;13.00;94.46
49451;BME280;35336;48.400;10.886;2022-10-16T00:15:36;96254.53;;;12.90;94.54
49451;BME280;35336;48.400;10.886;2022-10-16T00:15:55;96266.03;;;12.97;94.46
49451;BME280;35336;48.400;10.886;2022-10-16T00:16:12;96221.28;;;12.73;94.40
49451;BME280;35336;48.400;10.886;2022-10-16T00:16:28;96267.84;;;13.03;94.37
49451;BME280;35336;48.400;10.886;2022-10-16T00:16:44;96243.03;;;12.90;94.41
49451;BME280;35336;48.400;10.886;2022-10-16T00:16:59;96245.69;;;12.90;94.45
49451;BME280;35336;48.400;10.886;2022-10-16T00:17:15;96264.59;;;13.01;94.60
49451;BME280;35336;48.400;10.886;2022-10-16T00:17:30;96254.75;;;12.95;94.45
49451;BME280;35336;48.400;10.886;2022-10-16T00:17:46;96265.63;;;13.00;94.21
49451;BME280;35336;48.400;10.886;2022-10-16T00:18:02;96242.25;;;12.82;94.38
49451;BME280;35336;48.400;10.886;2022-10-16T00:18:17;96243.44;;;12.86;94.64
49451;BME280;35336;48.400;10.886;2022-10-16T00:18:33;96263.97;;;12.99;94.47
49451;BME280;35336;48.400;10.886;2022-10-16T00:18:48;96260.25;;;13.00;94.32
49451;BME280;35336;48.400;10.886;2022-10-16T00:19:04;96238.94;;;12.87;94.54
49451;BME280;35336;48.400;10.886;2022-10-16T00:19:19;96266.41;;;13.01;94.42
49451;BME280;35336;48.400;10.886;2022-10-16T00:19:35;96258.63;;;12.99;94.47
49451;BME280;35336;48.400;10.886;2022-10-16T00:19:50;96207.31;;;12.64;94.58
49451;BME280;35336;48.400;10.886;2022-10-16T00:20:06;96227.84;;;12.77;94.55
49451;BME280;35336;48.400;10.886;2022-10-16T00:20:21;96211.22;;;12.68;94.46
49451;BME280;35336;48.400;10.886;2022-10-16T00:20:37;96250.81;;;12.98;94.31
49451;BME280;35336;48.400;10.886;2022-10-16T00:20:53;96256.34;;;13.03;94.42
49451;BME280;35336;48.400;10.886;2022-10-16T00:21:11;96253.25;;;12.99;94.55
49451;BME280;35336;48.400;10.886;2022-10-16T00:21:29;96262.31;;;13.05;94.27
49451;BME280;35336;48.400;10.886;2022-10-16T00:21:45;96256.09;;;13.05;94.26
49451;BME280;35336;48.400;10.886;2022-10-16T00:22:00;96250.38;;;13.01;94.16
49451;BME280;35336;48.400;10.886;2022-10-16T00:22:15;96258.78;;;13.05;94.14
49451;BME280;35336;48.400;10.886;2022-10-16T00:22:31;96216.72;;;12.80;94.01
49451;BME280;35336;48.400;10.886;2022-10-16T00:22:46;96252.22;;;13.00;94.59
49451;BME280;35336;48.400;10.886;2022-10-16T00:23:03;96234.38;;;12.87;94.21
49451;BME280;35336;48.400;10.886;2022-10-16T00:23:19;96243.41;;;12.93;93.95
49451;BME280;35336;48.400;10.886;2022-10-16T00:23:35;96236.41;;;12.92;94.05
49451;BME280;35336;48.400;10.886;2022-10-16T00:23:52;96254.06;;;13.00;94.19
49451;BME280;35336;48.400;10.886;2022-10-16T00:24:09;96254.91;;;13.00;94.09
49451;BME280;35336;48.400;10.886;2022-10-16T00:24:25;96252.22;;;13.00;94.04
49451;BME280;35336;48.400;10.886;2022-10-16T00:24:40;96242.19;;;12.89;94.17
49451;BME280;35336;48.400;10.886;2022-10-16T00:24:56;96266.22;;;13.02;93.94
49451;BME280;35336;48.400;10.886;2022-10-16T00:25:11;96229.50;;;12.78;93.90
49451;BME280;35336;48.400;10.886;2022-10-16T00:25:27;96239.97;;;12.86;93.88
49451;BME280;35336;48.400;10.886;2022-10-16T00:25:42;96265.84;;;12.99;93.92
49451;BME280;35336;48.400;10.886;2022-10-16T00:26:00;96260.50;;;12.92;93.94
49451;BME280;35336;48.400;10.886;2022-10-16T00:26:16;96247.53;;;12.89;93.84
49451;BME280;35336;48.400;10.886;2022-10-16T00:26:33;96266.88;;;12.98;93.94
49451;BME280;35336;48.400;10.886;2022-10-16T00:26:49;96264.38;;;12.96;93.85
49451;BME280;35336;48.400;10.886;2022-10-16T00:27:05;96259.03;;;12.96;94.29
49451;BME280;35336;48.400;10.886;2022-10-16T00:27:21;96265.22;;;12.97;94.22
49451;BME280;35336;48.400;10.886;2022-10-16T00:27:36;96262.38;;;12.92;94.24
49451;BME280;35336;48.400;10.886;2022-10-16T00:27:51;96270.34;;;12.98;94.08
49451;BME280;35336;48.400;10.886;2022-10-16T00:28:07;96247.97;;;12.86;93.87
49451;BME280;35336;48.400;10.886;2022-10-16T00:28:22;96268.50;;;12.99;93.86
49451;BME280;35336;48.400;10.886;2022-10-16T00:28:39;96273.88;;;12.99;93.94
49451;BME280;35336;48.400;10.886;2022-10-16T00:28:54;96254.13;;;12.86;93.89
49451;BME280;35336;48.400;10.886;2022-10-16T00:29:10;96219.03;;;12.69;93.78
49451;BME280;35336;48.400;10.886;2022-10-16T00:29:25;96239.97;;;12.79;93.80
49451;BME280;35336;48.400;10.886;2022-10-16T00:29:41;96269.09;;;13.01;93.58
49451;BME280;35336;48.400;10.886;2022-10-16T00:29:56;96215.34;;;12.64;93.65
49451;BME280;35336;48.400;10.886;2022-10-16T00:30:11;96272.81;;;13.00;93.53
49451;BME280;35336;48.400;10.886;2022-10-16T00:30:27;96271.78;;;13.01;93.63
49451;BME280;35336;48.400;10.886;2022-10-16T00:30:43;96223.34;;;12.70;93.59
49451;BME280;35336;48.400;10.886;2022-10-16T00:30:58;96264.38;;;12.96;93.33
49451;BME280;35336;48.400;10.886;2022-10-16T00:31:14;96249.63;;;12.87;93.42
49451;BME280;35336;48.400;10.886;2022-10-16T00:31:30;96255.38;;;12.91;93.69
49451;BME280;35336;48.400;10.886;2022-10-16T00:31:45;96270.13;;;13.00;93.35
49451;BME280;35336;48.400;10.886;2022-10-16T00:32:01;96276.31;;;13.00;93.39
49451;BME280;35336;48.400;10.886;2022-10-16T00:32:17;96254.75;;;12.89;93.40
49451;BME280;35336;48.400;10.886;2022-10-16T00:32:32;96268.28;;;13.00;93.59
49451;BME280;35336;48.400;10.886;2022-10-16T00:32:48;96257.03;;;12.92;93.38
49451;BME280;35336;48.400;10.886;2022-10-16T00:33:03;96277.34;;;12.99;93.44
49451;BME280;35336;48.400;10.886;2022-10-16T00:33:19;96236.72;;;12.70;93.55
49451;BME280;35336;48.400;10.886;2022-10-16T00:33:35;96274.66;;;12.99;93.20
49451;BME280;35336;48.400;10.886;2022-10-16T00:33:51;96257.03;;;12.92;93.42
49451;BME280;35336;48.400;10.886;2022-10-16T00:34:07;96254.97;;;12.87;93.34
49451;BME280;35336;48.400;10.886;2022-10-16T00:34:22;96226.03;;;12.70;93.57
49451;BME280;35336;48.400;10.886;2022-10-16T00:34:38;96267.50;;;12.93;93.49
49451;BME280;35336;48.400;10.886;2022-10-16T00:34:53;96262.56;;;12.90;93.15
49451;BME280;35336;48.400;10.886;2022-10-16T00:35:09;96270.78;;;12.95;93.18
49451;BME280;35336;48.400;10.886;2022-10-16T00:35:25;96277.13;;;13.01;93.27
49451;BME280;35336;48.400;10.886;2022-10-16T00:35:40;96249.22;;;12.83;93.09
49451;BME280;35336;48.400;10.886;2022-10-16T00:35:58;96271.19;;;12.99;93.32
49451;BME280;35336;48.400;10.886;2022-10-16T00:36:16;96269.72;;;12.96;92.89
49451;BME280;35336;48.400;10.886;2022-10-16T00:36:32;96279.63;;;13.02;92.80
49451;BME280;35336;48.400;10.886;2022-10-16T00:36:47;96234.66;;;12.73;93.09
49451;BME280;35336;48.400;10.886;2022-10-16T00:37:02;96261.31;;;12.93;92.86
49451;BME280;35336;48.400;10.886;2022-10-16T00:37:18;96267.91;;;12.97;92.77
49451;BME280;35336;48.400;10.886;2022-10-16T00:37:33;96260.50;;;12.92;93.05
49451;BME280;35336;48.400;10.886;2022-10-16T00:37:48;96223.34;;;12.70;93.05
49451;BME280;35336;48.400;10.886;2022-10-16T00:38:04;96223.97;;;12.73;92.95
49451;BME280;35336;48.400;10.886;2022-10-16T00:38:19;96269.34;;;12.93;92.72
49451;BME280;35336;48.400;10.886;2022-10-16T00:38:35;96259.25;;;12.95;92.94
49451;BME280;35336;48.400;10.886;2022-10-16T00:38:52;96272.63;;;13.01;93.13
49451;BME280;35336;48.400;10.886;2022-10-16T00:39:11;96223.75;;;12.74;92.80
49451;BME280;35336;48.400;10.886;2022-10-16T00:39:26;96264.78;;;13.00;92.64
49451;BME280;35336;48.400;10.886;2022-10-16T00:39:41;96257.59;;;12.94;92.73
49451;BME280;35336;48.400;10.886;2022-10-16T00:39:57;96267.91;;;12.97;92.84
49451;BME280;35336;48.400;10.886;2022-10-16T00:40:12;96272.81;;;13.00;92.74
49451;BME280;35336;48.400;10.886;2022-10-16T00:40:28;96229.31;;;12.73;92.90
49451;BME280;35336;48.400;10.886;2022-10-16T00:40:43;96259.69;;;12.92;92.52
49451;BME280;35336;48.400;10.886;2022-10-16T00:40:59;96270.97;;;13.00;92.96
49451;BME280;35336;48.400;10.886;2022-10-16T00:41:16;96272.63;;;13.01;92.57
49451;BME280;35336;48.400;10.886;2022-10-16T00:41:32;96249.41;;;12.89;92.78
49451;BME280;35336;48.400;10.886;2022-10-16T00:41:48;96269.31;;;12.99;92.48
49451;BME280;35336;48.400;10.886;2022-10-16T00:42:04;96262.38;;;12.92;92.65
49451;BME280;35336;48.400;10.886;2022-10-16T00:42:19;96269.31;;;12.99;92.76
49451;BME280;35336;48.400;10.886;2022-10-16T00:42:35;96256.19;;;12.91;92.75
49451;BME280;35336;48.400;10.886;2022-10-16T00:42:50;96275.88;;;13.03;92.65
49451;BME280;35336;48.400;10.886;2022-10-16T00:43:51;96243.25;;;12.81;92.63
49451;BME280;35336;48.400;10.886;2022-10-16T00:44:57;96274.25;;;13.02;92.71
49451;BME280;35336;48.400;10.886;2022-10-16T00:45:13;96271.19;;;12.99;92.83
49451;BME280;35336;48.400;10.886;2022-10-16T00:45:28;96264.38;;;12.96;92.70
49451;BME280;35336;48.400;10.886;2022-10-16T00:45:43;96280.81;;;13.07;92.66
49451;BME280;35336;48.400;10.886;2022-10-16T00:46:00;96280.81;;;13.07;92.73
49451;BME280;35336;48.400;10.886;2022-10-16T00:46:51;96287.19;;;13.06;92.82
49451;BME280;35336;48.400;10.886;2022-10-16T00:47:10;96277.97;;;13.01;92.72
49451;BME280;35336;48.400;10.886;2022-10-16T00:47:30;96269.72;;;12.96;93.04
49451;BME280;35336;48.400;10.886;2022-10-16T00:47:48;96265.06;;;12.92;92.63
49451;BME280;35336;48.400;10.886;2022-10-16T00:48:11;96279.63;;;13.02;92.72
49451;BME280;35336;48.400;10.886;2022-10-16T00:48:28;96286.00;;;13.01;92.63
49451;BME280;35336;48.400;10.886;2022-10-16T00:48:48;96287.63;;;13.02;92.57
49451;BME280;35336;48.400;10.886;2022-10-16T00:49:10;96265.25;;;12.90;92.38
49451;BME280;35336;48.400;10.886;2022-10-16T00:49:26;96270.19;;;12.93;92.58
49451;BME280;35336;48.400;10.886;2022-10-16T00:49:41;96281.66;;;13.00;92.61
49451;BME280;35336;48.400;10.886;2022-10-16T00:50:33;96278.22;;;12.93;92.53
49451;BME280;35336;48.400;10.886;2022-10-16T00:50:49;96283.31;;;13.01;92.65
49451;BME280;35336;48.400;10.886;2022-10-16T00:51:06;96278.38;;;12.98;92.64
49451;BME280;35336;48.400;10.886;2022-10-16T00:51:25;96273.06;;;12.92;92.57
49451;BME280;35336;48.400;10.886;2022-10-16T00:51:48;96275.09;;;12.96;92.93
49451;BME280;35336;48.400;10.886;2022-10-16T00:52:05;96271.81;;;12.94;93.02
49451;BME280;35336;48.400;10.886;2022-10-16T00:52:20;96288.84;;;13.07;93.04
49451;BME280;35336;48.400;10.886;2022-10-16T00:52:39;96267.91;;;12.90;92.80
49451;BME280;35336;48.400;10.886;2022-10-16T00:52:57;96266.66;;;12.93;92.61
49451;BME280;35336;48.400;10.886;2022-10-16T00:53:14;96269.72;;;12.96;92.48
49451;BME280;35336;48.400;10.886;2022-10-16T00:53:30;96267.06;;;12.96;92.31
49451;BME280;35336;48.400;10.886;2022-10-16T00:53:46;96268.13;;;12.95;92.40
49451;BME280;35336;48.400;10.886;2022-10-16T00:54:03;96276.94;;;13.02;92.50
49451;BME280;35336;48.400;10.886;2022-10-16T00:54:23;96267.66;;;12.98;92.36
49451;BME280;35336;48.400;10.886;2022-10-16T00:54:40;96279.56;;;13.09;92.56
49451;BME280;35336;48.400;10.886;2022-10-16T00:54:56;96262.53;;;12.97;92.34
49451;BME280;35336;48.400;10.886;2022-10-16T00:55:12;96283.06;;;13.10;92.38
49451;BME280;35336;48.400;10.886;2022-10-16T00:55:28;96255.78;;;12.94;92.27
49451;BME280;35336;48.400;10.886;2022-10-16T00:55:45;96271.38;;;12.97;92.44
49451;BME280;35336;48.400;10.886;2022-10-16T00:56:01;96265.00;;;12.98;92.34
49451;BME280;35336;48.400;10.886;2022-10-16T00:56:17;96281.22;;;13.10;92.09
49451;BME280;35336;48.400;10.886;2022-10-16T00:56:33;96284.09;;;13.09;92.01
49451;BME280;35336;48.400;10.886;2022-10-16T00:56:49;96286.56;;;13.10;92.24
49451;BME280;35336;48.400;10.886;2022-10-16T00:57:06;96284.91;;;13.09;92.14
49451;BME280;35336;48.400;10.886;2022-10-16T00:57:22;96287.38;;;13.11;92.03
49451;BME280;35336;48.400;10.886;2022-10-16T00:57:39;96275.06;;;13.03;92.08
49451;BME280;35336;48.400;10.886;2022-10-16T00:57:55;96284.53;;;13.06;91.86
49451;BME280;35336;48.400;10.886;2022-10-16T00:58:11;96284.09;;;13.09;91.71
49451;BME280;35336;48.400;10.886;2022-10-16T00:58:27;96232.78;;;12.80;91.92
49451;BME280;35336;48.400;10.886;2022-10-16T00:58:43;96284.31;;;13.07;92.17
49451;BME280;35336;48.400;10.886;2022-10-16T00:58:59;96243.91;;;12.77;92.20
49451;BME280;35336;48.400;10.886;2022-10-16T00:59:32;96286.16;;;13.07;92.24
49451;BME280;35336;48.400;10.886;2022-10-16T00:59:48;96284.97;;;13.02;92.46
49451;BME280;35336;48.400;10.886;2022-10-16T01:00:06;96277.53;;;13.05;92.64
49451;BME280;35336;48.400;10.886;2022-10-16T01:00:24;96263.59;;;12.89;92.76
49451;BME280;35336;48.400;10.886;2022-10-16T01:00:40;96261.97;;;12.88;92.77
49451;BME280;35336;48.400;10.886;2022-10-16T01:00:56;96280.66;;;13.01;92.97
49451;BME280;35336;48.400;10.886;2022-10-16T01:01:12;96257.44;;;12.82;92.67
49451;BME280;35336;48.400;10.886;2022-10-16T01:01:28;96258.28;;;12.82;92.89
49451;BME280;35336;48.400;10.886;2022-10-16T01:01:43;96259.31;;;12.81;92.93
49451;BME280;35336;48.400;10.886;2022-10-16T01:01:59;96287.44;;;12.97;93.05
49451;BME280;35336;48.400;10.886;2022-10-16T01:02:16;96287.66;;;12.96;93.24
49451;BME280;35336;48.400;10.886;2022-10-16T01:02:31;96267.34;;;12.81;93.51
49451;BME280;35336;48.400;10.886;2022-10-16T01:02:54;96279.25;;;12.92;93.52
49451;BME280;35336;48.400;10.886;2022-10-16T01:03:25;96287.88;;;12.94;93.34
49451;BME280;35336;48.400;10.886;2022-10-16T01:03:40;96280.03;;;12.93;93.20
49451;BME280;35336;48.400;10.886;2022-10-16T01:03:56;96286.84;;;12.95;93.14
49451;BME280;35336;48.400;10.886;2022-10-16T01:04:11;96275.94;;;12.90;93.45
49451;BME280;35336;48.400;10.886;2022-10-16T01:04:32;96280.03;;;12.93;93.43
49451;BME280;35336;48.400;10.886;2022-10-16T01:04:53;96288.28;;;12.98;93.28
49451;BME280;35336;48.400;10.886;2022-10-16T01:05:09;96270.19;;;12.86;93.13
49451;BME280;35336;48.400;10.886;2022-10-16T01:05:33;96292.78;;;12.97;93.12
49451;BME280;35336;48.400;10.886;2022-10-16T01:06:21;96291.53;;;13.00;93.13
49451;BME280;35336;48.400;10.886;2022-10-16T01:07:45;96286.19;;;13.00;92.94
49451;BME280;35336;48.400;10.886;2022-10-16T01:08:18;96270.59;;;12.90;93.09
49451;BME280;35336;48.400;10.886;2022-10-16T01:09:37;96238.78;;;12.75;92.79
49451;BME280;35336;48.400;10.886;2022-10-16T01:10:07;96231.38;;;12.70;92.54
49451;BME280;35336;48.400;10.886;2022-10-16T01:10:39;96272.81;;;13.00;92.46
49451;BME280;35336;48.400;10.886;2022-10-16T01:11:04;96277.34;;;12.99;92.48
49451;BME280;35336;48.400;10.886;2022-10-16T01:13:05;96271.00;;;12.94;92.76
49451;BME280;35336;48.400;10.886;2022-10-16T01:13:25;96276.56;;;12.92;93.06
49451;BME280;35336;48.400;10.886;2022-10-16T01:13:46;96273.25;;;12.90;93.14
49451;BME280;35336;48.400;10.886;2022-10-16T01:14:23;96245.31;;;12.79;93.18
49451;BME280;35336;48.400;10.886;2022-10-16T01:15:34;96259.94;;;12.83;93.15
49451;BME280;35336;48.400;10.886;2022-10-16T01:16:02;96256.66;;;12.81;93.02
49451;BME280;35336;48.400;10.886;2022-10-16T01:16:37;96264.84;;;12.86;93.27
49451;BME280;35336;48.400;10.886;2022-10-16T01:17:04;96275.53;;;12.93;93.15
49451;BME280;35336;48.400;10.886;2022-10-16T01:17:35;96247.19;;;12.79;93.10
49451;BME280;35336;48.400;10.886;2022-10-16T01:18:17;96255.84;;;12.81;92.96
49451;BME280;35336;48.400;10.886;2022-10-16T01:19:54;96267.66;;;12.98;92.84
49451;BME280;35336;48.400;10.886;2022-10-16T01:20:40;96251.69;;;12.85;92.51
49451;BME280;35336;48.400;10.886;2022-10-16T01:21:02;96249.00;;;12.85;92.80
49451;BME280;35336;48.400;10.886;2022-10-16T01:21:27;96262.38;;;12.92;92.64
49451;BME280;35336;48.400;10.886;2022-10-16T01:21:46;96259.31;;;12.88;92.63
49451;BME280;35336;48.400;10.886;2022-10-16T01:22:05;96275.69;;;12.98;92.73
49451;BME280;35336;48.400;10.886;2022-10-16T01:22:25;96259.88;;;12.90;92.79
49451;BME280;35336;48.400;10.886;2022-10-16T01:23:37;96266.47;;;12.94;92.47
49451;BME280;35336;48.400;10.886;2022-10-16T01:24:42;96265.63;;;13.00;92.29
49451;BME280;35336;48.400;10.886;2022-10-16T01:25:00;96238.31;;;12.85;92.24
49451;BME280;35336;48.400;10.886;2022-10-16T01:25:25;96271.38;;;12.97;92.07
49451;BME280;35336;48.400;10.886;2022-10-16T01:26:31;96243.41;;;12.93;91.65
49451;BME280;35336;48.400;10.886;2022-10-16T01:27:28;96252.47;;;12.99;91.90
49451;BME280;35336;48.400;10.886;2022-10-16T01:27:47;96262.69;;;13.09;91.65
49451;BME280;35336;48.400;10.886;2022-10-16T01:28:05;96236.41;;;12.92;91.62
49451;BME280;35336;48.400;10.886;2022-10-16T01:28:25;96224.53;;;12.88;91.69
49451;BME280;35336;48.400;10.886;2022-10-16T01:29:59;96231.47;;;12.89;92.03
49451;BME280;35336;48.400;10.886;2022-10-16T01:30:22;96258.59;;;13.06;92.10
49451;BME280;35336;48.400;10.886;2022-10-16T01:30:40;96254.06;;;13.07;91.95
49451;BME280;35336;48.400;10.886;2022-10-16T01:30:58;96261.28;;;13.06;91.88
49451;BME280;35336;48.400;10.886;2022-10-16T01:31:18;96240.53;;;12.95;91.95
49451;BME280;35336;48.400;10.886;2022-10-16T01:31:39;96253.44;;;13.05;91.90
49451;BME280;35336;48.400;10.886;2022-10-16T01:32:11;96258.41;;;13.01;91.68
49451;BME280;35336;48.400;10.886;2022-10-16T01:33:28;96266.41;;;13.01;92.03
49451;BME280;35336;48.400;10.886;2022-10-16T01:33:50;96221.69;;;12.76;91.96
49451;BME280;35336;48.400;10.886;2022-10-16T01:34:14;96259.03;;;12.96;91.89
49451;BME280;35336;48.400;10.886;2022-10-16T01:34:35;96238.09;;;12.86;92.01
49451;BME280;35336;48.400;10.886;2022-10-16T01:35:00;96272.00;;;12.99;92.21
49451;BME280;35336;48.400;10.886;2022-10-16T01:35:22;96269.31;;;12.99;92.11
49451;BME280;35336;48.400;10.886;2022-10-16T01:35:43;96248.41;;;12.83;92.27
49451;BME280;35336;48.400;10.886;2022-10-16T01:36:14;96276.72;;;12.97;92.51
49451;BME280;35336;48.400;10.886;2022-10-16T01:36:37;96250.03;;;12.84;92.46
49451;BME280;35336;48.400;10.886;2022-10-16T01:37:35;96249.66;;;12.80;92.38
49451;BME280;35336;48.400;10.886;2022-10-16T01:38:08;96278.59;;;12.97;92.04
49451;BME280;35336;48.400;10.886;2022-10-16T01:38:30;96237.75;;;12.69;92.04
49451;BME280;35336;48.400;10.886;2022-10-16T01:38:50;96274.28;;;12.96;92.21
49451;BME280;35336;48.400;10.886;2022-10-16T01:39:09;96257.66;;;12.87;92.25
49451;BME280;35336;48.400;10.886;2022-10-16T01:39:33;96270.78;;;12.95;92.24
49451;BME280;35336;48.400;10.886;2022-10-16T01:39:52;96259.72;;;12.85;92.33
49451;BME280;35336;48.400;10.886;2022-10-16T01:40:12;96262.38;;;12.85;92.18
49451;BME280;35336;48.400;10.886;2022-10-16T01:40:29;96255.84;;;12.81;91.97
49451;BME280;35336;48.400;10.886;2022-10-16T01:40:52;96263.41;;;12.84;92.18
49451;BME280;35336;48.400;10.886;2022-10-16T01:41:24;96277.19;;;12.94;92.30
49451;BME280;35336;48.400;10.886;2022-10-16T01:41:45;96255.00;;;12.80;92.23
49451;BME280;35336;48.400;10.886;2022-10-16T01:42:36;96274.69;;;12.93;92.47
49451;BME280;35336;48.400;10.886;2022-10-16T01:43:03;96272.25;;;12.91;92.39
49451;BME280;35336;48.400;10.886;2022-10-16T01:43:24;96250.91;;;12.78;92.58
49451;BME280;35336;48.400;10.886;2022-10-16T01:43:45;96273.88;;;12.92;92.25
49451;BME280;35336;48.400;10.886;2022-10-16T01:44:17;96259.94;;;12.83;92.25
49451;BME280;35336;48.400;10.886;2022-10-16T01:44:36;96262.38;;;12.85;92.28
49451;BME280;35336;48.400;10.886;2022-10-16T01:44:52;96263.63;;;12.82;92.34
49451;BME280;35336;48.400;10.886;2022-10-16T01:45:11;96270.59;;;12.90;92.57
49451;BME280;35336;48.400;10.886;2022-10-16T01:45:30;96238.59;;;12.70;92.58
49451;BME280;35336;48.400;10.886;2022-10-16T01:45:47;96232.88;;;12.60;92.57
49451;BME280;35336;48.400;10.886;2022-10-16T01:46:03;96266.72;;;12.86;92.74
49451;BME280;35336;48.400;10.886;2022-10-16T01:46:20;96222.97;;;12.60;92.77
49451;BME280;35336;48.400;10.886;2022-10-16T01:46:38;96234.06;;;12.64;92.67
49451;BME280;35336;48.400;10.886;2022-10-16T01:46:55;96266.94;;;12.84;92.74
49451;BME280;35336;48.400;10.886;2022-10-16T01:47:12;96252.94;;;12.76;92.71
49451;BME280;35336;48.400;10.886;2022-10-16T01:47:30;96272.06;;;12.86;92.88
49451;BME280;35336;48.400;10.886;2022-10-16T01:47:48;96252.94;;;12.76;92.79
49451;BME280;35336;48.400;10.886;2022-10-16T01:48:05;96245.38;;;12.73;92.93
49451;BME280;35336;48.400;10.886;2022-10-16T01:48:23;96247.44;;;12.70;92.91
49451;BME280;35336;48.400;10.886;2022-10-16T01:48:39;96256.47;;;12.76;93.36
49451;BME280;35336;48.400;10.886;2022-10-16T01:48:56;96265.28;;;12.83;93.18
49451;BME280;35336;48.400;10.886;2022-10-16T01:49:13;96253.41;;;12.73;93.06
49451;BME280;35336;48.400;10.886;2022-10-16T01:49:34;96256.66;;;12.75;93.03
49451;BME280;35336;48.400;10.886;2022-10-16T01:49:52;96221.38;;;12.52;93.57